createdAt,value
2018-06-16T00:02:07.049Z,8.47
2018-06-16T00:04:35.847Z,8.23
2018-06-16T00:07:04.616Z,8.33
2018-06-16T00:09:33.692Z,8.50
2018-06-16T00:12:02.382Z,8.40
2018-06-16T00:14:31.192Z,8.33
2018-06-16T00:16:59.994Z,8.70
2018-06-16T00:19:28.875Z,8.23
2018-06-16T00:21:57.803Z,8.90
2018-06-16T00:24:26.526Z,8.97
2018-06-16T00:26:55.349Z,8.80
2018-06-16T00:29:24.148Z,9.00
2018-06-16T00:31:52.730Z,9.10
2018-06-16T00:34:21.397Z,8.90
2018-06-16T00:36:50.071Z,9.60
2018-06-16T00:39:18.882Z,9.53
2018-06-16T00:41:47.615Z,10.23
2018-06-16T00:44:16.313Z,9.30
2018-06-16T00:46:45.114Z,9.80
2018-06-16T00:49:13.933Z,9.27
2018-06-16T00:51:42.772Z,9.33
2018-06-16T00:54:11.622Z,9.40
2018-06-16T00:56:40.348Z,9.67
2018-06-16T00:59:09.208Z,10.40
2018-06-16T01:01:38.261Z,9.73
2018-06-16T01:04:07.255Z,9.83
2018-06-16T01:06:36.173Z,9.30
2018-06-16T01:09:06.045Z,9.53
2018-06-16T01:11:34.953Z,9.70
2018-06-16T01:14:03.732Z,9.03
2018-06-16T01:16:32.527Z,10.23
2018-06-16T01:19:01.305Z,9.97
2018-06-16T01:21:30.117Z,9.40
2018-06-16T01:23:58.999Z,10.03
2018-06-16T01:26:27.815Z,10.33
2018-06-16T01:28:56.881Z,10.40
2018-06-16T01:31:25.771Z,9.30
2018-06-16T01:33:54.536Z,8.73
2018-06-16T01:36:23.453Z,9.43
2018-06-16T01:38:52.178Z,9.30
2018-06-16T01:41:20.925Z,8.73
2018-06-16T01:43:49.659Z,9.17
2018-06-16T01:46:18.714Z,8.93
2018-06-16T01:48:47.705Z,9.03
2018-06-16T01:51:16.322Z,8.83
2018-06-16T01:53:45.085Z,9.17
2018-06-16T01:56:13.917Z,9.30
2018-06-16T01:58:42.895Z,9.10
2018-06-16T02:01:11.780Z,8.90
2018-06-16T02:06:15.797Z,9.33
2018-06-16T02:08:44.639Z,9.43
2018-06-16T02:11:13.493Z,9.40
2018-06-16T02:13:42.368Z,9.73
2018-06-16T02:16:11.175Z,10.07
2018-06-16T02:18:39.825Z,10.30
2018-06-16T02:21:08.752Z,10.20
2018-06-16T02:23:37.604Z,9.70
2018-06-16T02:26:06.355Z,9.27
2018-06-16T02:28:35.185Z,10.00
2018-06-16T02:31:04.075Z,9.30
2018-06-16T02:33:38.769Z,9.33
2018-06-16T02:36:07.581Z,9.20
2018-06-16T02:38:36.791Z,9.53
2018-06-16T02:41:05.819Z,10.00
2018-06-16T02:43:34.719Z,9.03
2018-06-16T02:46:03.775Z,10.03
2018-06-16T02:48:33.003Z,8.80
2018-06-16T02:51:01.701Z,9.73
2018-06-16T02:53:30.491Z,9.60
2018-06-16T02:55:59.551Z,8.90
2018-06-16T02:58:28.604Z,9.10
2018-06-16T03:00:57.453Z,9.47
2018-06-16T03:03:26.222Z,9.30
2018-06-16T03:05:55.001Z,9.70
2018-06-16T03:08:23.721Z,9.13
2018-06-16T03:10:52.523Z,9.63
2018-06-16T03:13:21.248Z,8.83
2018-06-16T03:15:49.937Z,9.37
2018-06-16T03:18:18.848Z,8.70
2018-06-16T03:20:47.661Z,9.00
2018-06-16T03:23:16.308Z,9.90
2018-06-16T03:25:45.240Z,9.13
2018-06-16T03:28:13.978Z,9.57
2018-06-16T03:30:42.718Z,9.40
2018-06-16T03:33:11.437Z,9.30
2018-06-16T03:35:40.209Z,9.53
2018-06-16T03:38:08.956Z,9.83
2018-06-16T03:40:37.861Z,9.63
2018-06-16T03:43:06.954Z,9.40
2018-06-16T03:45:35.746Z,9.33
2018-06-16T03:48:04.685Z,10.07
2018-06-16T03:50:33.368Z,10.27
2018-06-16T03:53:02.196Z,9.90
2018-06-16T03:55:30.913Z,10.10
2018-06-16T03:57:59.702Z,9.67
2018-06-16T04:00:28.493Z,9.23
2018-06-16T04:02:57.352Z,9.70
2018-06-16T04:05:26.431Z,10.17
2018-06-16T04:07:55.361Z,10.17
2018-06-16T04:10:24.229Z,9.50
2018-06-16T04:12:52.903Z,9.50
2018-06-16T04:15:21.861Z,10.07
2018-06-16T04:17:50.579Z,9.87
2018-06-16T04:20:19.388Z,10.23
2018-06-16T04:22:48.411Z,10.00
2018-06-16T04:25:17.314Z,9.10
2018-06-16T04:27:46.090Z,10.50
2018-06-16T04:30:14.957Z,9.13
2018-06-16T04:32:43.745Z,9.63
2018-06-16T04:35:12.837Z,9.20
2018-06-16T04:37:41.777Z,10.07
2018-06-16T04:40:10.492Z,9.80
2018-06-16T04:42:39.273Z,9.70
2018-06-16T04:45:08.228Z,9.27
2018-06-16T04:47:37.018Z,9.70
2018-06-16T04:50:06.093Z,9.77
2018-06-16T04:52:34.841Z,9.77
2018-06-16T04:55:03.763Z,10.27
2018-06-16T04:57:32.888Z,9.60
2018-06-16T05:00:01.598Z,10.03
2018-06-16T05:02:30.220Z,10.30
2018-06-16T05:04:59.118Z,9.53
2018-06-16T05:07:27.913Z,9.77
2018-06-16T05:09:56.744Z,9.60
2018-06-16T05:12:25.620Z,9.57
2018-06-16T05:14:53.955Z,10.00
2018-06-16T05:17:22.657Z,9.80
2018-06-16T05:19:51.650Z,10.00
2018-06-16T05:22:20.328Z,9.53
2018-06-16T05:24:49.249Z,10.23
2018-06-16T05:27:18.017Z,8.93
2018-06-16T05:29:46.996Z,9.50
2018-06-16T05:32:15.773Z,12.30
2018-06-16T05:34:44.688Z,12.63
2018-06-16T05:37:13.577Z,12.37
2018-06-16T05:39:42.289Z,10.87
2018-06-16T05:42:11.005Z,11.13
2018-06-16T05:44:39.714Z,10.40
2018-06-16T05:47:08.407Z,9.60
2018-06-16T05:49:37.214Z,9.80
2018-06-16T05:52:05.912Z,9.40
2018-06-16T05:54:34.710Z,9.23
2018-06-16T05:57:03.479Z,9.47
2018-06-16T05:59:32.193Z,9.13
2018-06-16T06:02:01.159Z,9.20
2018-06-16T06:04:29.873Z,9.70
2018-06-16T06:06:58.663Z,9.70
2018-06-16T06:09:27.513Z,9.83
2018-06-16T06:11:56.517Z,9.97
2018-06-16T06:14:25.407Z,10.00
2018-06-16T06:16:54.141Z,9.37
2018-06-16T06:19:22.985Z,9.47
2018-06-16T06:21:51.750Z,9.90
2018-06-16T06:24:20.664Z,9.30
2018-06-16T06:26:49.630Z,10.03
2018-06-16T06:29:18.653Z,9.57
2018-06-16T06:31:47.336Z,9.87
2018-06-16T06:34:16.076Z,9.87
2018-06-16T06:36:44.944Z,9.07
2018-06-16T06:39:39.906Z,9.50
2018-06-16T06:42:08.813Z,10.43
2018-06-16T06:44:37.638Z,9.43
2018-06-16T06:47:06.704Z,9.27
2018-06-16T06:49:35.406Z,9.27
2018-06-16T06:52:04.400Z,9.33
2018-06-16T06:54:33.368Z,9.20
2018-06-16T06:57:02.160Z,9.40
2018-06-16T06:59:30.768Z,9.07
2018-06-16T07:01:59.826Z,8.80
2018-06-16T07:04:28.736Z,8.43
2018-06-16T07:06:57.328Z,8.53
2018-06-16T07:09:26.159Z,8.57
2018-06-16T07:11:54.942Z,9.00
2018-06-16T07:14:23.994Z,8.60
2018-06-16T07:16:52.878Z,9.50
2018-06-16T07:19:21.769Z,8.90
2018-06-16T07:21:50.557Z,8.67
2018-06-16T07:24:19.461Z,9.13
2018-06-16T07:26:48.957Z,9.77
2018-06-16T07:29:17.894Z,9.27
2018-06-16T07:31:46.680Z,9.70
2018-06-16T07:34:15.351Z,9.27
2018-06-16T07:36:44.129Z,9.37
2018-06-16T07:39:13.003Z,8.70
2018-06-16T07:41:41.804Z,10.40
2018-06-16T07:44:10.525Z,8.60
2018-06-16T07:46:38.979Z,8.87
2018-06-16T07:49:07.572Z,8.73
2018-06-16T07:51:36.203Z,8.37
2018-06-16T07:54:05.018Z,9.17
2018-06-16T07:56:33.929Z,9.30
2018-06-16T07:59:02.697Z,9.40
2018-06-16T08:01:31.701Z,8.93
2018-06-16T08:04:00.969Z,8.60
2018-06-16T08:06:29.987Z,8.37
2018-06-16T08:08:59.115Z,8.83
2018-06-16T08:11:27.937Z,7.70
2018-06-16T08:13:56.561Z,8.50
2018-06-16T08:16:25.554Z,8.03
2018-06-16T08:18:54.357Z,8.67
2018-06-16T08:21:23.231Z,8.13
2018-06-16T08:23:52.151Z,8.03
2018-06-16T08:26:20.977Z,7.83
2018-06-16T08:28:49.637Z,7.07
2018-06-16T08:31:18.594Z,7.07
2018-06-16T08:33:47.333Z,6.80
2018-06-16T08:36:16.272Z,7.83
2018-06-16T08:38:44.969Z,7.83
2018-06-16T08:41:13.592Z,8.00
2018-06-16T08:43:42.265Z,7.23
2018-06-16T08:46:10.907Z,6.87
2018-06-16T08:48:39.619Z,7.77
2018-06-16T08:51:08.297Z,7.17
2018-06-16T08:53:37.196Z,7.07
2018-06-16T08:56:06.195Z,6.27
2018-06-16T08:58:35.277Z,6.17
2018-06-16T09:01:04.492Z,6.47
2018-06-16T09:03:33.452Z,6.33
2018-06-16T09:06:02.173Z,6.33
2018-06-16T09:08:31.186Z,5.97
2018-06-16T09:11:00.083Z,6.27
2018-06-16T09:13:28.977Z,5.73
2018-06-16T09:15:57.613Z,5.27
2018-06-16T09:18:26.400Z,5.90
2018-06-16T09:20:55.288Z,5.80
2018-06-16T09:23:24.176Z,5.73
2018-06-16T09:25:53.050Z,5.63
2018-06-16T09:28:22.232Z,5.87
2018-06-16T09:30:51.038Z,5.40
2018-06-16T09:33:19.911Z,5.40
2018-06-16T09:35:49.026Z,5.00
2018-06-16T09:38:17.937Z,4.73
2018-06-16T09:40:46.653Z,5.27
2018-06-16T09:43:15.425Z,5.30
2018-06-16T09:45:44.139Z,5.03
2018-06-16T09:48:12.822Z,5.43
2018-06-16T09:50:41.783Z,5.10
2018-06-16T09:53:11.689Z,4.80
2018-06-16T09:55:40.387Z,4.97
2018-06-16T09:58:09.317Z,5.10
2018-06-16T10:00:40.023Z,4.97
2018-06-16T10:03:09.530Z,5.10
2018-06-16T10:05:38.410Z,4.90
2018-06-16T10:08:07.321Z,4.50
2018-06-16T10:10:36.184Z,4.40
2018-06-16T10:13:04.973Z,4.80
2018-06-16T10:15:33.797Z,4.80
2018-06-16T10:18:03.004Z,4.33
2018-06-16T10:20:31.985Z,4.13
2018-06-16T10:23:01.082Z,4.97
2018-06-16T10:25:29.881Z,4.13
2018-06-16T10:27:58.733Z,4.50
2018-06-16T10:30:27.446Z,4.40
2018-06-16T10:32:56.312Z,4.90
2018-06-16T10:35:25.134Z,4.77
2018-06-16T10:37:53.889Z,4.40
2018-06-16T10:40:22.504Z,4.90
2018-06-16T10:42:51.671Z,4.80
2018-06-16T10:45:20.569Z,3.63
2018-06-16T10:47:49.317Z,3.93
2018-06-16T10:50:17.971Z,3.93
2018-06-16T10:52:47.028Z,3.97
2018-06-16T10:55:16.123Z,4.03
2018-06-16T10:57:44.945Z,4.10
2018-06-16T11:00:13.609Z,3.90
2018-06-16T11:02:42.336Z,4.07
2018-06-16T11:05:11.084Z,3.97
2018-06-16T11:07:39.979Z,4.20
2018-06-16T11:10:08.810Z,4.23
2018-06-16T11:12:37.646Z,4.20
2018-06-16T11:15:06.769Z,4.43
2018-06-16T11:17:35.761Z,3.80
2018-06-16T11:20:04.573Z,3.83
2018-06-16T11:22:33.389Z,4.10
2018-06-16T11:25:02.369Z,4.60
2018-06-16T11:27:31.036Z,4.10
2018-06-16T11:29:59.913Z,4.30
2018-06-16T11:32:28.700Z,4.00
2018-06-16T11:34:57.561Z,4.40
2018-06-16T11:37:26.245Z,4.03
2018-06-16T11:39:54.986Z,4.10
2018-06-16T11:42:23.961Z,3.90
2018-06-16T11:44:52.745Z,4.03
2018-06-16T11:47:21.422Z,4.10
2018-06-16T11:49:50.089Z,4.17
2018-06-16T11:52:18.804Z,4.10
2018-06-16T11:54:47.541Z,3.92
2018-06-16T11:57:16.186Z,3.40
2018-06-16T11:59:44.735Z,3.98
2018-06-16T12:02:13.477Z,3.50
2018-06-16T12:04:42.325Z,3.57
2018-06-16T12:07:11.131Z,3.50
2018-06-16T12:09:39.964Z,4.00
2018-06-16T12:12:08.692Z,3.92
2018-06-16T12:14:37.603Z,4.12
2018-06-16T12:17:06.562Z,3.90
2018-06-16T12:19:35.351Z,3.72
2018-06-16T12:22:04.348Z,3.85
2018-06-16T12:24:33.172Z,3.90
2018-06-16T12:27:01.937Z,3.90
2018-06-16T12:29:30.711Z,3.72
2018-06-16T12:31:59.400Z,3.42
2018-06-16T12:34:28.050Z,3.60
2018-06-16T12:36:56.777Z,3.20
2018-06-16T12:39:25.696Z,3.55
2018-06-16T12:41:54.758Z,4.10
2018-06-16T12:44:23.497Z,3.90
2018-06-16T12:46:52.368Z,3.70
2018-06-16T12:49:21.203Z,3.50
2018-06-16T12:51:50.222Z,3.65
2018-06-16T12:54:18.996Z,3.72
2018-06-16T12:56:47.833Z,4.00
2018-06-16T12:59:16.766Z,4.00
2018-06-16T13:01:45.796Z,3.67
2018-06-16T13:04:14.501Z,3.42
2018-06-16T13:06:43.363Z,3.70
2018-06-16T13:09:12.355Z,3.62
2018-06-16T13:11:41.385Z,3.63
2018-06-16T13:14:10.219Z,4.08
2018-06-16T13:16:38.867Z,4.10
2018-06-16T13:19:07.716Z,3.30
2018-06-16T13:21:36.512Z,4.00
2018-06-16T13:24:05.333Z,4.25
2018-06-16T13:26:34.079Z,4.50
2018-06-16T13:29:03.077Z,4.40
2018-06-16T13:31:31.968Z,5.37
2018-06-16T13:34:00.861Z,4.47
2018-06-16T13:36:29.704Z,4.42
2018-06-16T13:38:58.641Z,4.30
2018-06-16T13:41:27.463Z,4.53
2018-06-16T13:43:56.230Z,4.67
2018-06-16T13:46:24.921Z,4.70
2018-06-16T13:48:54.033Z,4.10
2018-06-16T13:51:22.757Z,4.53
2018-06-16T13:53:51.509Z,4.20
2018-06-16T13:56:20.252Z,4.97
2018-06-16T13:58:48.965Z,4.40
2018-06-16T14:01:17.792Z,4.58
2018-06-16T14:03:46.567Z,4.53
2018-06-16T14:06:15.318Z,4.40
2018-06-16T14:08:44.212Z,4.92
2018-06-16T14:11:12.961Z,4.62
2018-06-16T14:13:41.817Z,4.23
2018-06-16T14:16:10.608Z,4.80
2018-06-16T14:18:39.568Z,4.40
2018-06-16T14:21:08.460Z,4.40
2018-06-16T14:23:37.186Z,4.70
2018-06-16T14:26:06.042Z,4.25
2018-06-16T14:28:34.902Z,4.30
2018-06-16T14:31:03.962Z,4.80
2018-06-16T14:33:32.917Z,4.00
2018-06-16T14:36:01.612Z,4.70
2018-06-16T14:38:30.287Z,4.60
2018-06-16T14:40:59.561Z,4.70
2018-06-16T14:43:28.304Z,4.30
2018-06-16T14:45:57.168Z,4.80
2018-06-16T14:48:25.958Z,4.50
2018-06-16T14:50:54.879Z,4.70
2018-06-16T14:53:23.694Z,4.90
2018-06-16T14:55:52.598Z,4.30
2018-06-16T14:58:25.181Z,4.60
2018-06-16T15:00:54.430Z,4.72
2018-06-16T15:03:23.293Z,4.80
2018-06-16T15:05:52.476Z,4.53
2018-06-16T15:08:21.408Z,4.53
2018-06-16T15:10:51.200Z,4.73
2018-06-16T15:13:20.044Z,4.13
2018-06-16T15:15:48.575Z,4.33
2018-06-16T15:18:17.465Z,4.50
2018-06-16T15:20:46.603Z,4.62
2018-06-16T15:23:15.688Z,4.10
2018-06-16T15:25:44.651Z,4.47
2018-06-16T15:28:13.422Z,4.95
2018-06-16T15:30:42.125Z,4.50
2018-06-16T15:33:11.468Z,4.10
2018-06-16T15:35:40.318Z,3.90
2018-06-16T15:38:08.926Z,3.90
2018-06-16T15:40:37.664Z,4.00
2018-06-16T15:43:06.526Z,4.00
2018-06-16T15:45:35.312Z,3.83
2018-06-16T15:48:04.260Z,4.23
2018-06-16T15:50:33.141Z,3.70
2018-06-16T15:53:01.921Z,4.25
2018-06-16T15:55:30.590Z,3.93
2018-06-16T15:57:59.446Z,3.70
2018-06-16T16:00:28.321Z,3.90
2018-06-16T16:02:57.097Z,3.55
2018-06-16T16:05:25.888Z,3.85
2018-06-16T16:07:54.560Z,3.73
2018-06-16T16:10:23.384Z,3.80
2018-06-16T16:12:52.187Z,3.62
2018-06-16T16:15:21.060Z,3.90
2018-06-16T16:17:49.936Z,3.60
2018-06-16T16:20:18.852Z,3.77
2018-06-16T16:22:47.529Z,3.90
2018-06-16T16:25:16.485Z,4.08
2018-06-16T16:27:45.397Z,3.95
2018-06-16T16:30:14.290Z,3.90
2018-06-16T16:32:43.038Z,3.77
2018-06-16T16:35:11.899Z,3.87
2018-06-16T16:37:40.729Z,4.10
2018-06-16T16:40:09.571Z,4.47
2018-06-16T16:42:38.338Z,4.55
2018-06-16T16:45:07.739Z,4.47
2018-06-16T16:47:36.529Z,4.30
2018-06-16T16:50:05.366Z,3.70
2018-06-16T16:52:34.104Z,3.80
2018-06-16T16:55:03.132Z,4.03
2018-06-16T16:57:32.227Z,4.03
2018-06-16T17:00:01.084Z,3.90
2018-06-16T17:02:29.799Z,4.10
2018-06-16T17:04:58.661Z,4.00
2018-06-16T17:07:27.353Z,4.17
2018-06-16T17:09:56.342Z,4.40
2018-06-16T17:12:25.061Z,5.43
2018-06-16T17:14:53.736Z,4.72
2018-06-16T17:17:22.389Z,4.33
2018-06-16T17:19:51.471Z,4.63
2018-06-16T17:22:20.176Z,5.15
2018-06-16T17:24:48.772Z,4.70
2018-06-16T17:27:17.725Z,4.40
2018-06-16T17:29:46.552Z,4.22
2018-06-16T17:32:15.373Z,4.40
2018-06-16T17:34:44.156Z,4.15
2018-06-16T17:37:13.050Z,4.97
2018-06-16T17:39:41.602Z,5.10
2018-06-16T17:42:10.494Z,5.17
2018-06-16T17:44:39.119Z,35.25
2018-06-16T17:47:08.301Z,6.95
2018-06-16T17:49:37.270Z,5.85
2018-06-16T17:52:06.242Z,6.58
2018-06-16T17:54:35.051Z,6.77
2018-06-16T17:57:03.945Z,6.75
2018-06-16T17:59:32.733Z,6.55
2018-06-16T18:02:01.622Z,6.10
2018-06-16T18:04:30.530Z,5.50
2018-06-16T18:06:59.334Z,6.15
2018-06-16T18:09:28.092Z,5.83
2018-06-16T18:11:56.997Z,6.83
2018-06-16T18:14:25.832Z,7.10
2018-06-16T18:16:54.611Z,6.67
2018-06-16T18:19:23.390Z,7.10
2018-06-16T18:21:52.169Z,7.03
2018-06-16T18:24:20.822Z,6.78
2018-06-16T18:26:49.614Z,5.87
2018-06-16T18:29:18.299Z,6.47
2018-06-16T18:31:47.194Z,6.20
2018-06-16T18:34:15.909Z,5.50
2018-06-16T18:36:44.601Z,6.47
2018-06-16T18:39:13.457Z,5.90
2018-06-16T18:41:42.346Z,5.70
2018-06-16T18:44:11.065Z,6.10
2018-06-16T18:46:39.928Z,5.33
2018-06-16T18:49:08.668Z,6.17
2018-06-16T18:51:37.810Z,6.03
2018-06-16T18:54:07.063Z,5.70
2018-06-16T18:56:35.925Z,6.13
2018-06-16T18:59:04.947Z,6.20
2018-06-16T19:01:33.733Z,5.83
2018-06-16T19:04:02.502Z,6.22
2018-06-16T19:06:31.215Z,6.05
2018-06-16T19:09:00.000Z,6.97
2018-06-16T19:11:28.836Z,6.60
2018-06-16T19:13:57.574Z,9.10
2018-06-16T19:16:26.451Z,9.03
2018-06-16T19:18:55.339Z,10.45
2018-06-16T19:21:24.266Z,9.57
2018-06-16T19:23:52.873Z,10.38
2018-06-16T19:26:21.544Z,9.27
2018-06-16T19:28:50.360Z,8.60
2018-06-16T19:31:18.996Z,7.72
2018-06-16T19:33:47.627Z,6.60
2018-06-16T19:36:16.418Z,6.80
2018-06-16T19:38:45.206Z,6.58
2018-06-16T19:41:14.020Z,7.27
2018-06-16T19:43:42.705Z,6.87
2018-06-16T19:46:11.645Z,6.97
2018-06-16T19:48:40.672Z,7.07
2018-06-16T19:51:09.354Z,6.70
2018-06-16T19:53:38.158Z,7.30
2018-06-16T19:56:07.034Z,7.20
2018-06-16T19:58:35.925Z,7.30
2018-06-16T20:01:04.715Z,7.70
2018-06-16T20:03:33.709Z,8.20
2018-06-16T20:06:02.496Z,8.00
2018-06-16T20:08:31.208Z,8.07
2018-06-16T20:11:00.083Z,9.50
2018-06-16T20:13:28.878Z,8.87
2018-06-16T20:15:57.641Z,8.90
2018-06-16T20:18:26.390Z,10.27
2018-06-16T20:20:55.236Z,9.33
2018-06-16T20:23:24.013Z,9.63
2018-06-16T20:25:52.905Z,10.63
2018-06-16T20:28:21.899Z,10.33
2018-06-16T20:30:50.620Z,10.50
2018-06-16T20:33:19.415Z,11.53
2018-06-16T20:35:48.320Z,11.07
2018-06-16T20:38:17.003Z,9.40
2018-06-16T20:40:45.656Z,8.57
2018-06-16T20:43:14.637Z,9.00
2018-06-16T20:45:43.538Z,8.80
2018-06-16T20:48:12.418Z,8.93
2018-06-16T20:50:41.446Z,8.87
2018-06-16T20:53:10.322Z,8.27
2018-06-16T20:55:38.992Z,8.93
2018-06-16T20:58:07.818Z,8.67
2018-06-16T21:00:36.484Z,8.87
2018-06-16T21:03:05.407Z,10.00
2018-06-16T21:05:33.983Z,10.17
2018-06-16T21:08:02.944Z,10.67
2018-06-16T21:10:31.603Z,10.50
2018-06-16T21:13:01.126Z,10.67
2018-06-16T21:15:29.916Z,10.50
2018-06-16T21:17:58.605Z,10.80
2018-06-16T21:20:27.700Z,10.80
2018-06-16T21:22:56.621Z,10.53
2018-06-16T21:25:25.386Z,10.97
2018-06-16T21:27:54.062Z,11.13
2018-06-16T21:30:22.959Z,11.10
2018-06-16T21:32:51.848Z,11.03
2018-06-16T21:35:20.943Z,10.40
2018-06-16T21:37:49.762Z,10.17
2018-06-16T21:40:18.551Z,11.10
2018-06-16T21:42:47.289Z,11.07
2018-06-16T21:45:16.112Z,10.80
2018-06-16T21:47:45.092Z,10.83
2018-06-16T21:50:14.085Z,10.93
2018-06-16T21:52:42.939Z,10.80
2018-06-16T21:55:11.823Z,11.53
2018-06-16T21:57:40.627Z,11.43
2018-06-16T22:00:12.931Z,11.80
2018-06-16T22:02:42.487Z,11.60
2018-06-16T22:05:11.166Z,11.20
2018-06-16T22:07:40.440Z,11.50
2018-06-16T22:10:09.787Z,11.47
2018-06-16T22:12:38.924Z,11.07
2018-06-16T22:15:07.651Z,11.20
2018-06-16T22:17:36.560Z,11.60
2018-06-16T22:20:05.313Z,11.03
2018-06-16T22:22:34.855Z,11.50
2018-06-16T22:25:03.273Z,12.57
2018-06-16T22:27:32.100Z,12.03
2018-06-16T22:30:00.490Z,12.60
2018-06-16T22:32:29.137Z,12.47
2018-06-16T22:34:58.124Z,12.57
2018-06-16T22:37:26.808Z,12.13
2018-06-16T22:39:55.646Z,11.43
2018-06-16T22:42:24.331Z,12.40
2018-06-16T22:44:53.310Z,11.33
2018-06-16T22:47:21.967Z,11.80
2018-06-16T22:49:50.855Z,11.67
2018-06-16T22:52:19.674Z,11.10
2018-06-16T22:54:48.397Z,12.17
2018-06-16T22:57:17.532Z,11.70
2018-06-16T22:59:46.419Z,12.07
2018-06-16T23:02:15.348Z,12.43
2018-06-16T23:04:44.200Z,12.23
2018-06-16T23:07:13.093Z,12.63
2018-06-16T23:09:41.810Z,12.70
2018-06-16T23:12:10.782Z,11.93
2018-06-16T23:14:39.891Z,12.43
2018-06-16T23:17:08.861Z,12.13
2018-06-16T23:19:37.750Z,12.17
2018-06-16T23:22:06.406Z,12.97
2018-06-16T23:24:35.070Z,12.40
2018-06-16T23:27:04.017Z,13.13
2018-06-16T23:29:32.641Z,12.23
2018-06-16T23:32:01.537Z,12.63
2018-06-16T23:34:30.228Z,13.07
2018-06-16T23:36:58.925Z,12.97
2018-06-16T23:39:27.868Z,12.67
2018-06-16T23:41:56.885Z,12.27
2018-06-16T23:44:25.984Z,12.80
2018-06-16T23:46:55.044Z,12.13
2018-06-16T23:49:23.995Z,12.37
2018-06-16T23:51:52.944Z,11.93
2018-06-16T23:54:21.854Z,12.30
2018-06-16T23:56:50.774Z,12.70
2018-06-16T23:59:19.677Z,12.97
